sensor_id;sensor_type;location;lat;lon;timestamp;P1;durP1;ratioP1;P2;durP2;ratioP2
17858;SDS011;35426;30.698;104.050;2024-03-02T00:00:29;87.30;;;45.27;;
17858;SDS011;35426;30.698;104.050;2024-03-02T00:03:03;89.30;;;47.40;;
17858;SDS011;35426;30.698;104.050;2024-03-02T00:05:36;82.20;;;43.90;;
17858;SDS011;35426;30.698;104.050;2024-03-02T00:08:11;80.57;;;43.33;;
17858;SDS011;35426;30.698;104.050;2024-03-02T00:10:46;81.57;;;43.40;;
17858;SDS011;35426;30.698;104.050;2024-03-02T00:13:22;78.37;;;43.90;;
17858;SDS011;35426;30.698;104.050;2024-03-02T00:15:56;83.90;;;45.70;;
17858;SDS011;35426;30.698;104.050;2024-03-02T00:18:30;84.57;;;44.37;;
17858;SDS011;35426;30.698;104.050;2024-03-02T00:21:06;84.57;;;44.53;;
17858;SDS011;35426;30.698;104.050;2024-03-02T00:23:40;79.13;;;42.67;;
17858;SDS011;35426;30.698;104.050;2024-03-02T00:26:14;77.20;;;43.17;;
17858;SDS011;35426;30.698;104.050;2024-03-02T00:28:54;81.00;;;42.33;;
17858;SDS011;35426;30.698;104.050;2024-03-02T00:31:28;74.43;;;41.87;;
17858;SDS011;35426;30.698;104.050;2024-03-02T00:34:05;80.40;;;44.90;;
17858;SDS011;35426;30.698;104.050;2024-03-02T00:36:42;75.30;;;41.83;;
17858;SDS011;35426;30.698;104.050;2024-03-02T00:39:16;73.50;;;42.00;;
17858;SDS011;35426;30.698;104.050;2024-03-02T00:41:49;85.30;;;44.10;;
17858;SDS011;35426;30.698;104.050;2024-03-02T00:44:28;73.07;;;41.43;;
17858;SDS011;35426;30.698;104.050;2024-03-02T00:47:04;71.77;;;41.17;;
17858;SDS011;35426;30.698;104.050;2024-03-02T00:49:39;72.43;;;40.27;;
17858;SDS011;35426;30.698;104.050;2024-03-02T00:52:13;74.10;;;41.33;;
17858;SDS011;35426;30.698;104.050;2024-03-02T00:54:47;74.43;;;40.37;;
17858;SDS011;35426;30.698;104.050;2024-03-02T00:57:21;69.80;;;39.53;;
17858;SDS011;35426;30.698;104.050;2024-03-02T00:59:57;71.50;;;39.50;;
17858;SDS011;35426;30.698;104.050;2024-03-02T01:02:30;69.50;;;39.80;;
17858;SDS011;35426;30.698;104.050;2024-03-02T01:05:06;67.33;;;37.83;;
17858;SDS011;35426;30.698;104.050;2024-03-02T01:07:40;73.10;;;40.67;;
17858;SDS011;35426;30.698;104.050;2024-03-02T01:10:14;68.53;;;39.17;;
17858;SDS011;35426;30.698;104.050;2024-03-02T01:12:48;69.37;;;38.20;;
17858;SDS011;35426;30.698;104.050;2024-03-02T01:15:24;73.17;;;40.10;;
17858;SDS011;35426;30.698;104.050;2024-03-02T01:17:58;68.07;;;38.40;;
17858;SDS011;35426;30.698;104.050;2024-03-02T01:20:33;65.63;;;39.23;;
17858;SDS011;35426;30.698;104.050;2024-03-02T01:23:07;65.10;;;38.10;;
17858;SDS011;35426;30.698;104.050;2024-03-02T01:25:41;66.23;;;38.30;;
17858;SDS011;35426;30.698;104.050;2024-03-02T01:28:14;68.10;;;38.53;;
17858;SDS011;35426;30.698;104.050;2024-03-02T01:30:50;68.57;;;39.67;;
17858;SDS011;35426;30.698;104.050;2024-03-02T01:33:25;70.90;;;40.70;;
17858;SDS011;35426;30.698;104.050;2024-03-02T01:36:00;73.80;;;41.20;;
17858;SDS011;35426;30.698;104.050;2024-03-02T01:38:33;74.63;;;40.60;;
17858;SDS011;35426;30.698;104.050;2024-03-02T01:41:08;71.17;;;40.67;;
17858;SDS011;35426;30.698;104.050;2024-03-02T01:43:44;72.33;;;41.33;;
17858;SDS011;35426;30.698;104.050;2024-03-02T01:46:24;72.43;;;41.80;;
17858;SDS011;35426;30.698;104.050;2024-03-02T01:48:58;76.77;;;43.67;;
17858;SDS011;35426;30.698;104.050;2024-03-02T01:51:31;80.63;;;44.63;;
17858;SDS011;35426;30.698;104.050;2024-03-02T01:54:06;78.83;;;44.60;;
17858;SDS011;35426;30.698;104.050;2024-03-02T01:56:40;80.00;;;44.63;;
17858;SDS011;35426;30.698;104.050;2024-03-02T01:59:14;80.03;;;45.27;;
17858;SDS011;35426;30.698;104.050;2024-03-02T02:01:53;74.93;;;44.27;;
17858;SDS011;35426;30.698;104.050;2024-03-02T02:04:27;82.50;;;45.30;;
17858;SDS011;35426;30.698;104.050;2024-03-02T02:07:00;76.83;;;45.70;;
17858;SDS011;35426;30.698;104.050;2024-03-02T02:09:37;79.97;;;44.23;;
17858;SDS011;35426;30.698;104.050;2024-03-02T02:12:12;73.03;;;42.40;;
17858;SDS011;35426;30.698;104.050;2024-03-02T02:14:50;77.77;;;44.70;;
17858;SDS011;35426;30.698;104.050;2024-03-02T02:17:26;72.13;;;41.73;;
17858;SDS011;35426;30.698;104.050;2024-03-02T02:20:00;71.30;;;41.50;;
17858;SDS011;35426;30.698;104.050;2024-03-02T02:22:43;69.17;;;42.03;;
17858;SDS011;35426;30.698;104.050;2024-03-02T02:25:34;69.67;;;42.00;;
17858;SDS011;35426;30.698;104.050;2024-03-02T02:28:09;71.07;;;42.47;;
17858;SDS011;35426;30.698;104.050;2024-03-02T02:30:45;70.80;;;40.80;;
17858;SDS011;35426;30.698;104.050;2024-03-02T02:33:18;70.73;;;41.67;;
17858;SDS011;35426;30.698;104.050;2024-03-02T02:35:52;71.57;;;41.90;;
17858;SDS011;35426;30.698;104.050;2024-03-02T02:38:31;76.43;;;43.20;;
17858;SDS011;35426;30.698;104.050;2024-03-02T02:41:06;72.77;;;43.67;;
17858;SDS011;35426;30.698;104.050;2024-03-02T02:43:40;76.80;;;44.00;;
17858;SDS011;35426;30.698;104.050;2024-03-02T02:46:13;74.50;;;43.43;;
17858;SDS011;35426;30.698;104.050;2024-03-02T02:48:46;71.63;;;42.03;;
17858;SDS011;35426;30.698;104.050;2024-03-02T02:51:21;69.17;;;41.47;;
17858;SDS011;35426;30.698;104.050;2024-03-02T02:53:57;70.30;;;42.83;;
17858;SDS011;35426;30.698;104.050;2024-03-02T02:56:31;74.37;;;43.10;;
17858;SDS011;35426;30.698;104.050;2024-03-02T02:59:05;71.03;;;43.37;;
17858;SDS011;35426;30.698;104.050;2024-03-02T03:01:38;72.07;;;42.07;;
17858;SDS011;35426;30.698;104.050;2024-03-02T03:04:12;70.43;;;42.80;;
17858;SDS011;35426;30.698;104.050;2024-03-02T03:06:46;71.63;;;43.27;;
17858;SDS011;35426;30.698;104.050;2024-03-02T03:09:22;76.20;;;45.90;;
17858;SDS011;35426;30.698;104.050;2024-03-02T03:11:56;84.27;;;49.03;;
17858;SDS011;35426;30.698;104.050;2024-03-02T03:14:30;83.67;;;47.17;;
17858;SDS011;35426;30.698;104.050;2024-03-02T03:17:03;82.23;;;46.70;;
17858;SDS011;35426;30.698;104.050;2024-03-02T03:19:38;79.37;;;48.33;;
17858;SDS011;35426;30.698;104.050;2024-03-02T03:22:13;80.03;;;47.50;;
17858;SDS011;35426;30.698;104.050;2024-03-02T03:24:49;82.63;;;47.63;;
17858;SDS011;35426;30.698;104.050;2024-03-02T03:27:23;80.53;;;46.50;;
17858;SDS011;35426;30.698;104.050;2024-03-02T03:29:56;79.03;;;45.57;;
17858;SDS011;35426;30.698;104.050;2024-03-02T03:32:29;76.37;;;46.37;;
17858;SDS011;35426;30.698;104.050;2024-03-02T03:35:03;72.40;;;43.23;;
17858;SDS011;35426;30.698;104.050;2024-03-02T03:37:38;81.17;;;49.53;;
17858;SDS011;35426;30.698;104.050;2024-03-02T03:40:13;78.50;;;46.97;;
17858;SDS011;35426;30.698;104.050;2024-03-02T03:42:48;77.13;;;45.90;;
17858;SDS011;35426;30.698;104.050;2024-03-02T03:45:22;74.63;;;44.70;;
17858;SDS011;35426;30.698;104.050;2024-03-02T03:47:56;79.83;;;45.77;;
17858;SDS011;35426;30.698;104.050;2024-03-02T03:50:30;77.53;;;46.37;;
17858;SDS011;35426;30.698;104.050;2024-03-02T03:53:03;78.03;;;46.67;;
17858;SDS011;35426;30.698;104.050;2024-03-02T03:55:41;81.40;;;47.57;;
17858;SDS011;35426;30.698;104.050;2024-03-02T03:58:16;87.73;;;47.77;;
17858;SDS011;35426;30.698;104.050;2024-03-02T04:00:50;75.70;;;45.30;;
17858;SDS011;35426;30.698;104.050;2024-03-02T04:03:23;81.83;;;46.37;;
17858;SDS011;35426;30.698;104.050;2024-03-02T04:05:57;90.10;;;50.40;;
17858;SDS011;35426;30.698;104.050;2024-03-02T04:08:30;85.07;;;47.53;;
17858;SDS011;35426;30.698;104.050;2024-03-02T04:11:06;85.70;;;50.20;;
17858;SDS011;35426;30.698;104.050;2024-03-02T04:13:46;93.27;;;51.57;;
17858;SDS011;35426;30.698;104.050;2024-03-02T04:16:31;97.63;;;52.83;;
17858;SDS011;35426;30.698;104.050;2024-03-02T04:19:08;94.87;;;52.83;;
17858;SDS011;35426;30.698;104.050;2024-03-02T04:21:41;92.43;;;51.20;;
17858;SDS011;35426;30.698;104.050;2024-03-02T04:24:15;97.77;;;51.37;;
17858;SDS011;35426;30.698;104.050;2024-03-02T04:26:52;99.20;;;54.73;;
17858;SDS011;35426;30.698;104.050;2024-03-02T04:29:27;99.80;;;54.23;;
17858;SDS011;35426;30.698;104.050;2024-03-02T04:32:01;104.13;;;54.67;;
17858;SDS011;35426;30.698;104.050;2024-03-02T04:34:36;98.67;;;51.63;;
17858;SDS011;35426;30.698;104.050;2024-03-02T04:37:10;91.53;;;52.30;;
17858;SDS011;35426;30.698;104.050;2024-03-02T04:39:51;107.33;;;57.83;;
17858;SDS011;35426;30.698;104.050;2024-03-02T04:42:27;105.43;;;56.27;;
17858;SDS011;35426;30.698;104.050;2024-03-02T04:45:02;95.93;;;53.17;;
17858;SDS011;35426;30.698;104.050;2024-03-02T04:47:35;92.33;;;52.67;;
17858;SDS011;35426;30.698;104.050;2024-03-02T04:50:09;96.47;;;54.03;;
17858;SDS011;35426;30.698;104.050;2024-03-02T04:52:43;92.17;;;53.03;;
17858;SDS011;35426;30.698;104.050;2024-03-02T04:55:17;97.83;;;52.97;;
17858;SDS011;35426;30.698;104.050;2024-03-02T04:58:05;98.33;;;53.40;;
17858;SDS011;35426;30.698;104.050;2024-03-02T05:00:39;94.33;;;52.30;;
17858;SDS011;35426;30.698;104.050;2024-03-02T05:03:13;94.83;;;53.20;;
17858;SDS011;35426;30.698;104.050;2024-03-02T05:05:46;99.87;;;53.57;;
17858;SDS011;35426;30.698;104.050;2024-03-02T05:08:20;92.53;;;51.93;;
17858;SDS011;35426;30.698;104.050;2024-03-02T05:10:56;91.43;;;51.70;;
17858;SDS011;35426;30.698;104.050;2024-03-02T05:13:52;89.93;;;49.27;;
17858;SDS011;35426;30.698;104.050;2024-03-02T05:16:27;86.90;;;48.77;;
17858;SDS011;35426;30.698;104.050;2024-03-02T05:19:02;91.20;;;49.47;;
17858;SDS011;35426;30.698;104.050;2024-03-02T05:21:36;99.83;;;53.00;;
17858;SDS011;35426;30.698;104.050;2024-03-02T05:24:11;85.63;;;49.33;;
17858;SDS011;35426;30.698;104.050;2024-03-02T05:26:44;89.87;;;51.80;;
17858;SDS011;35426;30.698;104.050;2024-03-02T05:29:21;92.60;;;51.13;;
17858;SDS011;35426;30.698;104.050;2024-03-02T05:31:55;88.23;;;49.27;;
17858;SDS011;35426;30.698;104.050;2024-03-02T05:34:29;84.63;;;47.33;;
17858;SDS011;35426;30.698;104.050;2024-03-02T05:37:05;85.10;;;47.43;;
17858;SDS011;35426;30.698;104.050;2024-03-02T05:39:38;84.77;;;48.17;;
17858;SDS011;35426;30.698;104.050;2024-03-02T05:42:13;80.90;;;45.13;;
17858;SDS011;35426;30.698;104.050;2024-03-02T05:44:50;80.17;;;45.10;;
17858;SDS011;35426;30.698;104.050;2024-03-02T05:47:24;75.57;;;45.50;;
17858;SDS011;35426;30.698;104.050;2024-03-02T05:49:58;77.43;;;43.70;;
17858;SDS011;35426;30.698;104.050;2024-03-02T05:52:32;74.80;;;43.80;;
17858;SDS011;35426;30.698;104.050;2024-03-02T05:55:07;74.80;;;43.70;;
17858;SDS011;35426;30.698;104.050;2024-03-02T05:57:43;75.37;;;44.93;;
17858;SDS011;35426;30.698;104.050;2024-03-02T06:00:34;76.97;;;45.30;;
17858;SDS011;35426;30.698;104.050;2024-03-02T06:03:08;70.90;;;42.17;;
17858;SDS011;35426;30.698;104.050;2024-03-02T06:05:42;73.23;;;42.80;;
17858;SDS011;35426;30.698;104.050;2024-03-02T06:08:18;74.67;;;43.63;;
17858;SDS011;35426;30.698;104.050;2024-03-02T06:10:52;76.10;;;45.93;;
17858;SDS011;35426;30.698;104.050;2024-03-02T06:13:27;74.37;;;43.73;;
17858;SDS011;35426;30.698;104.050;2024-03-02T06:16:03;68.87;;;41.97;;
17858;SDS011;35426;30.698;104.050;2024-03-02T06:18:38;73.90;;;43.67;;
17858;SDS011;35426;30.698;104.050;2024-03-02T06:21:11;71.40;;;42.87;;
17858;SDS011;35426;30.698;104.050;2024-03-02T06:23:45;67.97;;;42.57;;
17858;SDS011;35426;30.698;104.050;2024-03-02T06:26:19;76.30;;;45.70;;
17858;SDS011;35426;30.698;104.050;2024-03-02T06:28:53;74.47;;;44.43;;
17858;SDS011;35426;30.698;104.050;2024-03-02T06:31:32;84.80;;;48.40;;
17858;SDS011;35426;30.698;104.050;2024-03-02T06:34:11;83.73;;;48.33;;
17858;SDS011;35426;30.698;104.050;2024-03-02T06:36:45;80.00;;;46.87;;
17858;SDS011;35426;30.698;104.050;2024-03-02T06:39:19;80.53;;;46.70;;
17858;SDS011;35426;30.698;104.050;2024-03-02T06:41:53;79.47;;;45.87;;
17858;SDS011;35426;30.698;104.050;2024-03-02T06:44:27;81.07;;;47.27;;
17858;SDS011;35426;30.698;104.050;2024-03-02T06:47:09;83.57;;;48.60;;
17858;SDS011;35426;30.698;104.050;2024-03-02T06:49:42;88.20;;;51.07;;
17858;SDS011;35426;30.698;104.050;2024-03-02T06:52:16;92.57;;;52.67;;
17858;SDS011;35426;30.698;104.050;2024-03-02T06:54:52;97.20;;;53.43;;
17858;SDS011;35426;30.698;104.050;2024-03-02T06:57:26;91.03;;;51.40;;
17858;SDS011;35426;30.698;104.050;2024-03-02T06:59:59;85.20;;;49.97;;
17858;SDS011;35426;30.698;104.050;2024-03-02T07:02:37;92.63;;;52.87;;
17858;SDS011;35426;30.698;104.050;2024-03-02T07:05:10;102.40;;;55.87;;
17858;SDS011;35426;30.698;104.050;2024-03-02T07:07:45;91.57;;;52.47;;
17858;SDS011;35426;30.698;104.050;2024-03-02T07:10:19;94.67;;;53.83;;
17858;SDS011;35426;30.698;104.050;2024-03-02T07:12:52;87.60;;;50.17;;
17858;SDS011;35426;30.698;104.050;2024-03-02T07:15:28;88.33;;;49.93;;
17858;SDS011;35426;30.698;104.050;2024-03-02T07:18:18;83.93;;;48.77;;
17858;SDS011;35426;30.698;104.050;2024-03-02T07:20:52;94.83;;;50.83;;
17858;SDS011;35426;30.698;104.050;2024-03-02T07:23:29;83.20;;;48.00;;
17858;SDS011;35426;30.698;104.050;2024-03-02T07:26:05;85.43;;;48.33;;
17858;SDS011;35426;30.698;104.050;2024-03-02T07:28:42;94.23;;;52.23;;
17858;SDS011;35426;30.698;104.050;2024-03-02T07:31:17;93.27;;;52.27;;
17858;SDS011;35426;30.698;104.050;2024-03-02T07:33:54;90.57;;;50.67;;
17858;SDS011;35426;30.698;104.050;2024-03-02T07:36:27;91.97;;;52.33;;
17858;SDS011;35426;30.698;104.050;2024-03-02T07:39:08;88.83;;;51.77;;
17858;SDS011;35426;30.698;104.050;2024-03-02T07:41:43;96.07;;;52.37;;
17858;SDS011;35426;30.698;104.050;2024-03-02T07:44:21;89.30;;;50.63;;
17858;SDS011;35426;30.698;104.050;2024-03-02T07:46:59;88.47;;;50.43;;
17858;SDS011;35426;30.698;104.050;2024-03-02T07:49:36;90.50;;;50.40;;
17858;SDS011;35426;30.698;104.050;2024-03-02T07:52:09;88.17;;;51.07;;
17858;SDS011;35426;30.698;104.050;2024-03-02T07:54:43;89.70;;;49.97;;
17858;SDS011;35426;30.698;104.050;2024-03-02T07:57:16;93.77;;;52.53;;
17858;SDS011;35426;30.698;104.050;2024-03-02T07:59:53;96.70;;;52.10;;
17858;SDS011;35426;30.698;104.050;2024-03-02T08:02:38;88.83;;;49.50;;
17858;SDS011;35426;30.698;104.050;2024-03-02T08:05:16;80.20;;;46.30;;
17858;SDS011;35426;30.698;104.050;2024-03-02T08:07:50;85.30;;;48.67;;
17858;SDS011;35426;30.698;104.050;2024-03-02T08:10:23;82.93;;;46.27;;
17858;SDS011;35426;30.698;104.050;2024-03-02T08:12:59;92.00;;;52.17;;
17858;SDS011;35426;30.698;104.050;2024-03-02T08:15:32;92.57;;;50.47;;
17858;SDS011;35426;30.698;104.050;2024-03-02T08:18:07;86.23;;;49.27;;
17858;SDS011;35426;30.698;104.050;2024-03-02T08:20:46;82.20;;;47.03;;
17858;SDS011;35426;30.698;104.050;2024-03-02T08:23:19;84.13;;;47.50;;
17858;SDS011;35426;30.698;104.050;2024-03-02T08:25:53;85.60;;;48.90;;
17858;SDS011;35426;30.698;104.050;2024-03-02T08:28:27;81.13;;;46.50;;
17858;SDS011;35426;30.698;104.050;2024-03-02T08:31:02;87.43;;;48.27;;
17858;SDS011;35426;30.698;104.050;2024-03-02T08:33:35;83.00;;;46.97;;
17858;SDS011;35426;30.698;104.050;2024-03-02T08:36:12;84.40;;;47.70;;
17858;SDS011;35426;30.698;104.050;2024-03-02T08:38:48;83.67;;;48.00;;
17858;SDS011;35426;30.698;104.050;2024-03-02T08:41:22;81.90;;;47.33;;
17858;SDS011;35426;30.698;104.050;2024-03-02T08:43:56;76.53;;;44.23;;
17858;SDS011;35426;30.698;104.050;2024-03-02T08:46:32;83.93;;;46.27;;
17858;SDS011;35426;30.698;104.050;2024-03-02T08:49:06;70.83;;;41.60;;
17858;SDS011;35426;30.698;104.050;2024-03-02T08:51:42;74.80;;;43.63;;
17858;SDS011;35426;30.698;104.050;2024-03-02T08:54:24;74.43;;;42.70;;
17858;SDS011;35426;30.698;104.050;2024-03-02T08:56:58;81.63;;;44.83;;
17858;SDS011;35426;30.698;104.050;2024-03-02T08:59:34;78.20;;;43.67;;
17858;SDS011;35426;30.698;104.050;2024-03-02T09:02:11;82.73;;;47.50;;
17858;SDS011;35426;30.698;104.050;2024-03-02T09:04:46;83.67;;;46.93;;
17858;SDS011;35426;30.698;104.050;2024-03-02T09:07:24;77.43;;;45.00;;
17858;SDS011;35426;30.698;104.050;2024-03-02T09:09:59;77.43;;;44.53;;
17858;SDS011;35426;30.698;104.050;2024-03-02T09:12:32;74.70;;;43.93;;
17858;SDS011;35426;30.698;104.050;2024-03-02T09:15:06;84.00;;;49.07;;
17858;SDS011;35426;30.698;104.050;2024-03-02T09:17:41;74.27;;;43.77;;
17858;SDS011;35426;30.698;104.050;2024-03-02T09:20:17;67.70;;;40.63;;
17858;SDS011;35426;30.698;104.050;2024-03-02T09:22:52;79.63;;;43.17;;
17858;SDS011;35426;30.698;104.050;2024-03-02T09:25:26;75.13;;;42.73;;
17858;SDS011;35426;30.698;104.050;2024-03-02T09:28:03;77.17;;;43.90;;
17858;SDS011;35426;30.698;104.050;2024-03-02T09:30:40;72.80;;;40.87;;
17858;SDS011;35426;30.698;104.050;2024-03-02T09:33:14;78.60;;;43.53;;
17858;SDS011;35426;30.698;104.050;2024-03-02T09:35:49;77.40;;;42.50;;
17858;SDS011;35426;30.698;104.050;2024-03-02T09:38:25;74.43;;;41.53;;
17858;SDS011;35426;30.698;104.050;2024-03-02T09:40:59;72.43;;;41.27;;
17858;SDS011;35426;30.698;104.050;2024-03-02T09:43:35;75.37;;;43.03;;
17858;SDS011;35426;30.698;104.050;2024-03-02T09:46:09;76.00;;;43.30;;
17858;SDS011;35426;30.698;104.050;2024-03-02T09:48:44;73.50;;;42.47;;
17858;SDS011;35426;30.698;104.050;2024-03-02T09:51:17;74.70;;;41.47;;
17858;SDS011;35426;30.698;104.050;2024-03-02T09:53:55;72.63;;;41.13;;
17858;SDS011;35426;30.698;104.050;2024-03-02T09:56:44;73.87;;;41.00;;
17858;SDS011;35426;30.698;104.050;2024-03-02T09:59:19;78.10;;;44.20;;
17858;SDS011;35426;30.698;104.050;2024-03-02T10:01:57;78.93;;;44.70;;
17858;SDS011;35426;30.698;104.050;2024-03-02T10:04:33;78.17;;;45.57;;
17858;SDS011;35426;30.698;104.050;2024-03-02T10:07:12;79.60;;;44.43;;
17858;SDS011;35426;30.698;104.050;2024-03-02T10:09:48;76.03;;;43.67;;
17858;SDS011;35426;30.698;104.050;2024-03-02T10:12:23;74.47;;;41.70;;
17858;SDS011;35426;30.698;104.050;2024-03-02T10:15:03;76.00;;;43.00;;
17858;SDS011;35426;30.698;104.050;2024-03-02T10:17:39;76.37;;;42.37;;
17858;SDS011;35426;30.698;104.050;2024-03-02T10:20:21;74.30;;;41.03;;
17858;SDS011;35426;30.698;104.050;2024-03-02T10:22:56;71.60;;;41.07;;
17858;SDS011;35426;30.698;104.050;2024-03-02T10:25:35;79.07;;;43.67;;
17858;SDS011;35426;30.698;104.050;2024-03-02T10:28:21;82.83;;;46.23;;
17858;SDS011;35426;30.698;104.050;2024-03-02T10:31:00;86.97;;;44.80;;
17858;SDS011;35426;30.698;104.050;2024-03-02T10:33:37;83.70;;;45.37;;
17858;SDS011;35426;30.698;104.050;2024-03-02T10:36:11;86.67;;;46.43;;
17858;SDS011;35426;30.698;104.050;2024-03-02T10:38:49;78.10;;;43.53;;
17858;SDS011;35426;30.698;104.050;2024-03-02T10:41:26;79.47;;;44.67;;
17858;SDS011;35426;30.698;104.050;2024-03-02T10:44:02;84.07;;;45.43;;
17858;SDS011;35426;30.698;104.050;2024-03-02T10:46:39;83.50;;;46.17;;
17858;SDS011;35426;30.698;104.050;2024-03-02T10:49:14;85.53;;;47.33;;
17858;SDS011;35426;30.698;104.050;2024-03-02T10:51:50;97.30;;;50.17;;
17858;SDS011;35426;30.698;104.050;2024-03-02T10:54:25;84.97;;;46.40;;
17858;SDS011;35426;30.698;104.050;2024-03-02T10:57:02;88.07;;;47.30;;
17858;SDS011;35426;30.698;104.050;2024-03-02T10:59:44;83.60;;;46.53;;
17858;SDS011;35426;30.698;104.050;2024-03-02T11:02:21;88.90;;;47.10;;
17858;SDS011;35426;30.698;104.050;2024-03-02T11:04:56;81.53;;;44.83;;
17858;SDS011;35426;30.698;104.050;2024-03-02T11:07:32;77.33;;;43.97;;
17858;SDS011;35426;30.698;104.050;2024-03-02T11:10:07;76.40;;;42.27;;
17858;SDS011;35426;30.698;104.050;2024-03-02T11:12:47;78.63;;;44.17;;
17858;SDS011;35426;30.698;104.050;2024-03-02T11:15:27;83.03;;;45.73;;
17858;SDS011;35426;30.698;104.050;2024-03-02T11:18:06;73.57;;;43.07;;
17858;SDS011;35426;30.698;104.050;2024-03-02T11:20:42;79.70;;;44.47;;
17858;SDS011;35426;30.698;104.050;2024-03-02T11:23:17;78.47;;;43.10;;
17858;SDS011;35426;30.698;104.050;2024-03-02T11:25:51;78.37;;;43.63;;
17858;SDS011;35426;30.698;104.050;2024-03-02T11:28:34;82.47;;;45.63;;
17858;SDS011;35426;30.698;104.050;2024-03-02T11:31:09;92.87;;;48.77;;
17858;SDS011;35426;30.698;104.050;2024-03-02T11:33:44;83.43;;;44.93;;
17858;SDS011;35426;30.698;104.050;2024-03-02T11:36:19;85.80;;;45.87;;
17858;SDS011;35426;30.698;104.050;2024-03-02T11:38:52;90.57;;;48.83;;
17858;SDS011;35426;30.698;104.050;2024-03-02T11:41:27;93.30;;;47.77;;
17858;SDS011;35426;30.698;104.050;2024-03-02T11:44:03;89.17;;;47.73;;
17858;SDS011;35426;30.698;104.050;2024-03-02T11:46:43;84.33;;;46.37;;
17858;SDS011;35426;30.698;104.050;2024-03-02T11:49:18;88.43;;;44.73;;
17858;SDS011;35426;30.698;104.050;2024-03-02T11:52:06;83.03;;;45.93;;
17858;SDS011;35426;30.698;104.050;2024-03-02T11:54:41;79.30;;;42.50;;
17858;SDS011;35426;30.698;104.050;2024-03-02T11:57:18;84.07;;;44.23;;
17858;SDS011;35426;30.698;104.050;2024-03-02T11:59:57;84.67;;;45.77;;
17858;SDS011;35426;30.698;104.050;2024-03-02T12:02:33;86.50;;;46.73;;
17858;SDS011;35426;30.698;104.050;2024-03-02T12:05:09;91.10;;;48.00;;
17858;SDS011;35426;30.698;104.050;2024-03-02T12:07:43;83.20;;;45.37;;
17858;SDS011;35426;30.698;104.050;2024-03-02T12:10:17;81.87;;;43.73;;
17858;SDS011;35426;30.698;104.050;2024-03-02T12:12:55;86.70;;;45.60;;
17858;SDS011;35426;30.698;104.050;2024-03-02T12:15:31;84.20;;;46.87;;
17858;SDS011;35426;30.698;104.050;2024-03-02T12:18:07;94.87;;;50.23;;
17858;SDS011;35426;30.698;104.050;2024-03-02T12:20:41;91.80;;;47.70;;
17858;SDS011;35426;30.698;104.050;2024-03-02T12:23:20;90.33;;;48.47;;
17858;SDS011;35426;30.698;104.050;2024-03-02T12:25:55;97.77;;;52.20;;
17858;SDS011;35426;30.698;104.050;2024-03-02T12:28:34;93.90;;;49.40;;
17858;SDS011;35426;30.698;104.050;2024-03-02T12:31:17;104.57;;;55.17;;
17858;SDS011;35426;30.698;104.050;2024-03-02T12:33:57;106.90;;;53.97;;
17858;SDS011;35426;30.698;104.050;2024-03-02T12:36:47;113.27;;;57.07;;
17858;SDS011;35426;30.698;104.050;2024-03-02T12:39:26;96.07;;;51.80;;
17858;SDS011;35426;30.698;104.050;2024-03-02T12:42:03;102.80;;;51.87;;
17858;SDS011;35426;30.698;104.050;2024-03-02T12:44:40;105.03;;;54.93;;
17858;SDS011;35426;30.698;104.050;2024-03-02T12:47:30;97.60;;;51.67;;
17858;SDS011;35426;30.698;104.050;2024-03-02T12:50:09;98.67;;;51.83;;
17858;SDS011;35426;30.698;104.050;2024-03-02T12:52:51;99.80;;;52.73;;
17858;SDS011;35426;30.698;104.050;2024-03-02T12:55:28;93.87;;;50.50;;
17858;SDS011;35426;30.698;104.050;2024-03-02T12:58:05;92.63;;;49.50;;
17858;SDS011;35426;30.698;104.050;2024-03-02T13:00:44;91.20;;;49.03;;
17858;SDS011;35426;30.698;104.050;2024-03-02T13:03:29;96.03;;;51.87;;
17858;SDS011;35426;30.698;104.050;2024-03-02T13:06:09;99.47;;;53.40;;
17858;SDS011;35426;30.698;104.050;2024-03-02T13:08:55;104.53;;;56.67;;
17858;SDS011;35426;30.698;104.050;2024-03-02T13:11:35;106.83;;;56.47;;
17858;SDS011;35426;30.698;104.050;2024-03-02T13:14:14;110.17;;;57.13;;
17858;SDS011;35426;30.698;104.050;2024-03-02T13:16:55;111.30;;;58.20;;
17858;SDS011;35426;30.698;104.050;2024-03-02T13:19:39;111.00;;;58.73;;
17858;SDS011;35426;30.698;104.050;2024-03-02T13:22:38;128.30;;;65.00;;
17858;SDS011;35426;30.698;104.050;2024-03-02T13:25:17;127.07;;;64.70;;
17858;SDS011;35426;30.698;104.050;2024-03-02T13:27:55;118.27;;;62.60;;
17858;SDS011;35426;30.698;104.050;2024-03-02T13:30:31;120.67;;;61.23;;
17858;SDS011;35426;30.698;104.050;2024-03-02T13:33:12;120.80;;;61.73;;
17858;SDS011;35426;30.698;104.050;2024-03-02T13:35:56;115.27;;;60.67;;
17858;SDS011;35426;30.698;104.050;2024-03-02T13:38:39;113.20;;;58.37;;
17858;SDS011;35426;30.698;104.050;2024-03-02T13:41:15;128.40;;;68.60;;
17858;SDS011;35426;30.698;104.050;2024-03-02T13:43:52;128.03;;;64.60;;
17858;SDS011;35426;30.698;104.050;2024-03-02T13:46:30;126.13;;;63.77;;
17858;SDS011;35426;30.698;104.050;2024-03-02T13:49:06;122.03;;;62.70;;
17858;SDS011;35426;30.698;104.050;2024-03-02T13:51:46;132.67;;;69.13;;
17858;SDS011;35426;30.698;104.050;2024-03-02T13:54:24;130.27;;;67.50;;
17858;SDS011;35426;30.698;104.050;2024-03-02T13:57:00;133.57;;;68.57;;
17858;SDS011;35426;30.698;104.050;2024-03-02T13:59:34;131.17;;;68.07;;
17858;SDS011;35426;30.698;104.050;2024-03-02T14:02:09;131.50;;;66.10;;
17858;SDS011;35426;30.698;104.050;2024-03-02T14:04:53;142.70;;;72.50;;
17858;SDS011;35426;30.698;104.050;2024-03-02T14:07:34;132.93;;;66.13;;
17858;SDS011;35426;30.698;104.050;2024-03-02T14:10:09;125.37;;;66.60;;
17858;SDS011;35426;30.698;104.050;2024-03-02T14:12:45;136.57;;;71.50;;
17858;SDS011;35426;30.698;104.050;2024-03-02T14:15:20;134.80;;;68.40;;
17858;SDS011;35426;30.698;104.050;2024-03-02T14:17:56;133.90;;;68.27;;
17858;SDS011;35426;30.698;104.050;2024-03-02T14:20:32;129.03;;;64.73;;
17858;SDS011;35426;30.698;104.050;2024-03-02T14:23:14;128.50;;;66.43;;
17858;SDS011;35426;30.698;104.050;2024-03-02T14:25:48;116.77;;;61.93;;
17858;SDS011;35426;30.698;104.050;2024-03-02T14:28:22;119.37;;;61.10;;
17858;SDS011;35426;30.698;104.050;2024-03-02T14:31:16;136.40;;;70.47;;
17858;SDS011;35426;30.698;104.050;2024-03-02T14:33:53;141.47;;;71.53;;
17858;SDS011;35426;30.698;104.050;2024-03-02T14:36:29;127.00;;;65.03;;
17858;SDS011;35426;30.698;104.050;2024-03-02T14:39:06;129.37;;;68.37;;
17858;SDS011;35426;30.698;104.050;2024-03-02T14:41:40;143.80;;;73.77;;
17858;SDS011;35426;30.698;104.050;2024-03-02T14:44:13;141.63;;;71.63;;
17858;SDS011;35426;30.698;104.050;2024-03-02T14:46:47;134.23;;;69.77;;